sensor_id;sensor_type;location;lat;lon;timestamp;pressure;altitude;pressure_sealevel;temperature;humidity
2188;BME280;1100;52.014;8.540;2023-03-24T00:02:06;98750.91;;;9.95;84.42
2188;BME280;1100;52.014;8.540;2023-03-24T00:04:32;98749.06;;;9.92;84.88
2188;BME280;1100;52.014;8.540;2023-03-24T00:06:59;98742.44;;;9.90;84.89
2188;BME280;1100;52.014;8.540;2023-03-24T00:09:26;98740.28;;;9.84;84.94
2188;BME280;1100;52.014;8.540;2023-03-24T00:11:55;98732.44;;;9.83;85.52
2188;BME280;1100;52.014;8.540;2023-03-24T00:14:20;98730.72;;;9.85;85.85
2188;BME280;1100;52.014;8.540;2023-03-24T00:16:47;98719.34;;;9.83;85.71
2188;BME280;1100;52.014;8.540;2023-03-24T00:19:14;98719.03;;;9.81;85.78
2188;BME280;1100;52.014;8.540;2023-03-24T00:21:40;98716.25;;;9.81;86.70
2188;BME280;1100;52.014;8.540;2023-03-24T00:24:06;98709.63;;;9.79;85.97
2188;BME280;1100;52.014;8.540;2023-03-24T00:26:33;98708.56;;;9.76;86.06
2188;BME280;1100;52.014;8.540;2023-03-24T00:29:02;98699.16;;;9.74;86.33
2188;BME280;1100;52.014;8.540;2023-03-24T00:31:29;98699.63;;;9.72;86.52
2188;BME280;1100;52.014;8.540;2023-03-24T00:33:54;98699.63;;;9.72;86.92
2188;BME280;1100;52.014;8.540;2023-03-24T00:36:22;98698.09;;;9.71;86.87
2188;BME280;1100;52.014;8.540;2023-03-24T00:38:48;98692.25;;;9.69;87.05
2188;BME280;1100;52.014;8.540;2023-03-24T00:41:14;98683.59;;;9.67;87.68
2188;BME280;1100;52.014;8.540;2023-03-24T00:43:44;98680.56;;;9.65;87.13
2188;BME280;1100;52.014;8.540;2023-03-24T00:46:12;98684.84;;;9.66;87.73
2188;BME280;1100;52.014;8.540;2023-03-24T00:51:22;98666.69;;;9.65;87.78
2188;BME280;1100;52.014;8.540;2023-03-24T00:53:48;98669.91;;;9.63;87.76
2188;BME280;1100;52.014;8.540;2023-03-24T00:56:13;98669.13;;;9.63;87.95
2188;BME280;1100;52.014;8.540;2023-03-24T00:58:39;98670.66;;;9.64;88.08
2188;BME280;1100;52.014;8.540;2023-03-24T01:01:05;98658.63;;;9.67;88.42
2188;BME280;1100;52.014;8.540;2023-03-24T01:03:31;98660.66;;;9.66;88.35
2188;BME280;1100;52.014;8.540;2023-03-24T01:06:02;98658.34;;;9.65;88.34
2188;BME280;1100;52.014;8.540;2023-03-24T01:08:29;98648.47;;;9.64;88.94
2188;BME280;1100;52.014;8.540;2023-03-24T01:10:54;98640.47;;;9.66;88.75
2188;BME280;1100;52.014;8.540;2023-03-24T01:13:26;98639.22;;;9.67;89.16
2188;BME280;1100;52.014;8.540;2023-03-24T01:15:53;98644.47;;;9.65;88.75
2188;BME280;1100;52.014;8.540;2023-03-24T01:18:19;98643.72;;;9.64;89.76
2188;BME280;1100;52.014;8.540;2023-03-24T01:20:46;98635.97;;;9.68;89.96
2188;BME280;1100;52.014;8.540;2023-03-24T01:23:17;98628.44;;;9.69;90.03
2188;BME280;1100;52.014;8.540;2023-03-24T01:25:47;98633.81;;;9.72;90.06
2188;BME280;1100;52.014;8.540;2023-03-24T01:28:15;98623.47;;;9.73;90.44
2188;BME280;1100;52.014;8.540;2023-03-24T01:30:42;98627.50;;;9.72;90.10
2188;BME280;1100;52.014;8.540;2023-03-24T01:33:08;98604.69;;;9.68;90.00
2188;BME280;1100;52.014;8.540;2023-03-24T01:35:34;98613.31;;;9.70;89.84
2188;BME280;1100;52.014;8.540;2023-03-24T01:37:59;98612.38;;;9.73;90.33
2188;BME280;1100;52.014;8.540;2023-03-24T01:40:28;98600.06;;;9.74;90.76
2188;BME280;1100;52.014;8.540;2023-03-24T01:42:55;98616.03;;;9.79;91.17
2188;BME280;1100;52.014;8.540;2023-03-24T01:45:50;98597.22;;;9.83;91.26
2188;BME280;1100;52.014;8.540;2023-03-24T01:48:39;98584.56;;;9.82;90.70
2188;BME280;1100;52.014;8.540;2023-03-24T01:51:10;98581.63;;;9.86;90.84
2188;BME280;1100;52.014;8.540;2023-03-24T01:53:39;98575.31;;;9.85;90.87
2188;BME280;1100;52.014;8.540;2023-03-24T01:56:08;98580.53;;;9.93;91.59
2188;BME280;1100;52.014;8.540;2023-03-24T01:58:37;98570.63;;;9.92;91.24
2188;BME280;1100;52.014;8.540;2023-03-24T02:01:04;98563.88;;;9.93;90.96
2188;BME280;1100;52.014;8.540;2023-03-24T02:03:30;98551.50;;;9.94;91.27
2188;BME280;1100;52.014;8.540;2023-03-24T02:05:59;98559.84;;;9.94;91.01
2188;BME280;1100;52.014;8.540;2023-03-24T02:08:40;98550.47;;;9.91;91.16
2188;BME280;1100;52.014;8.540;2023-03-24T02:11:07;98546.75;;;9.94;91.36
2188;BME280;1100;52.014;8.540;2023-03-24T02:13:32;98539.16;;;9.95;91.06
2188;BME280;1100;52.014;8.540;2023-03-24T02:16:16;98520.97;;;9.94;91.43
2188;BME280;1100;52.014;8.540;2023-03-24T02:18:54;98526.06;;;9.95;91.36
2188;BME280;1100;52.014;8.540;2023-03-24T02:26:58;98534.69;;;9.97;91.86
2188;BME280;1100;52.014;8.540;2023-03-24T02:40:46;98516.00;;;9.98;92.38
2188;BME280;1100;52.014;8.540;2023-03-24T02:43:21;98516.00;;;9.98;92.65
2188;BME280;1100;52.014;8.540;2023-03-24T02:49:10;98508.56;;;10.04;92.61
2188;BME280;1100;52.014;8.540;2023-03-24T02:54:44;98486.75;;;10.12;92.97
2188;BME280;1100;52.014;8.540;2023-03-24T02:57:29;98488.78;;;10.12;92.52
2188;BME280;1100;52.014;8.540;2023-03-24T03:00:05;98467.63;;;10.14;92.83
2188;BME280;1100;52.014;8.540;2023-03-24T03:02:43;98461.00;;;10.12;92.88
2188;BME280;1100;52.014;8.540;2023-03-24T03:05:16;98467.63;;;10.14;93.00
2188;BME280;1100;52.014;8.540;2023-03-24T03:07:43;98455.72;;;10.14;92.90
2188;BME280;1100;52.014;8.540;2023-03-24T03:10:21;98450.19;;;10.14;92.80
2188;BME280;1100;52.014;8.540;2023-03-24T03:12:51;98441.69;;;10.17;93.15
2188;BME280;1100;52.014;8.540;2023-03-24T03:15:22;98433.91;;;10.21;92.95
2188;BME280;1100;52.014;8.540;2023-03-24T03:18:06;98429.13;;;10.22;93.16
2188;BME280;1100;52.014;8.540;2023-03-24T03:20:38;98425.09;;;10.23;93.05
2188;BME280;1100;52.014;8.540;2023-03-24T03:23:10;98428.38;;;10.21;92.56
2188;BME280;1100;52.014;8.540;2023-03-24T03:25:42;98420.72;;;10.16;92.75
2188;BME280;1100;52.014;8.540;2023-03-24T03:28:12;98413.53;;;10.09;92.49
2188;BME280;1100;52.014;8.540;2023-03-24T03:30:49;98420.97;;;10.03;92.45
2188;BME280;1100;52.014;8.540;2023-03-24T03:33:20;98406.41;;;9.93;92.98
2188;BME280;1100;52.014;8.540;2023-03-24T03:36:00;98415.59;;;9.84;93.01
2188;BME280;1100;52.014;8.540;2023-03-24T03:38:52;98392.63;;;9.84;93.25
2188;BME280;1100;52.014;8.540;2023-03-24T03:41:19;98396.47;;;9.87;93.64
2188;BME280;1100;52.014;8.540;2023-03-24T03:43:46;98384.59;;;9.86;93.75
2188;BME280;1100;52.014;8.540;2023-03-24T03:46:13;98383.53;;;9.83;93.53
2188;BME280;1100;52.014;8.540;2023-03-24T03:48:40;98381.25;;;9.82;93.98
2188;BME280;1100;52.014;8.540;2023-03-24T03:51:06;98380.78;;;9.83;93.66
2188;BME280;1100;52.014;8.540;2023-03-24T03:53:54;98384.03;;;9.82;93.76
2188;BME280;1100;52.014;8.540;2023-03-24T03:56:26;98377.22;;;9.83;94.11
2188;BME280;1100;52.014;8.540;2023-03-24T03:58:52;98369.75;;;9.89;94.17
2188;BME280;1100;52.014;8.540;2023-03-24T04:01:20;98371.59;;;9.92;94.33
2188;BME280;1100;52.014;8.540;2023-03-24T04:06:54;98373.63;;;10.07;94.55
2188;BME280;1100;52.014;8.540;2023-03-24T04:09:27;98378.78;;;10.14;94.20
2188;BME280;1100;52.014;8.540;2023-03-24T04:17:50;98372.34;;;10.23;93.96
2188;BME280;1100;52.014;8.540;2023-03-24T04:20:29;98377.72;;;10.27;94.13
2188;BME280;1100;52.014;8.540;2023-03-24T04:28:41;98363.19;;;10.47;94.74
2188;BME280;1100;52.014;8.540;2023-03-24T04:31:34;98374.66;;;10.55;94.58
2188;BME280;1100;52.014;8.540;2023-03-24T04:34:14;98364.59;;;10.57;94.39
2188;BME280;1100;52.014;8.540;2023-03-24T04:36:51;98360.94;;;10.66;94.78
2188;BME280;1100;52.014;8.540;2023-03-24T04:39:24;98367.84;;;10.71;94.62
2188;BME280;1100;52.014;8.540;2023-03-24T04:41:56;98391.69;;;10.78;94.61
2188;BME280;1100;52.014;8.540;2023-03-24T04:44:24;98365.50;;;10.84;94.78
2188;BME280;1100;52.014;8.540;2023-03-24T04:46:51;98362.81;;;10.90;94.73
2188;BME280;1100;52.014;8.540;2023-03-24T04:49:17;98360.28;;;10.92;94.21
2188;BME280;1100;52.014;8.540;2023-03-24T04:51:44;98354.25;;;10.94;94.41
2188;BME280;1100;52.014;8.540;2023-03-24T04:54:10;98353.84;;;11.01;94.43
2188;BME280;1100;52.014;8.540;2023-03-24T04:59:04;98362.25;;;11.07;93.97
2188;BME280;1100;52.014;8.540;2023-03-24T05:01:31;98371.88;;;11.06;94.13
2188;BME280;1100;52.014;8.540;2023-03-24T05:03:57;98365.81;;;11.07;94.03
2188;BME280;1100;52.014;8.540;2023-03-24T05:06:23;98361.28;;;11.10;94.07
2188;BME280;1100;52.014;8.540;2023-03-24T05:08:50;98361.94;;;11.20;94.16
2188;BME280;1100;52.014;8.540;2023-03-24T05:11:17;98365.75;;;11.23;93.83
2188;BME280;1100;52.014;8.540;2023-03-24T05:13:42;98364.72;;;11.20;93.54
2188;BME280;1100;52.014;8.540;2023-03-24T05:16:08;98365.41;;;11.15;93.57
2188;BME280;1100;52.014;8.540;2023-03-24T05:18:34;98364.44;;;11.18;93.77
2188;BME280;1100;52.014;8.540;2023-03-24T05:20:59;98375.56;;;11.18;93.56
2188;BME280;1100;52.014;8.540;2023-03-24T05:23:25;98362.63;;;11.15;93.34
2188;BME280;1100;52.014;8.540;2023-03-24T05:25:50;98380.56;;;11.14;93.42
2188;BME280;1100;52.014;8.540;2023-03-24T05:28:16;98376.22;;;11.13;93.59
2188;BME280;1100;52.014;8.540;2023-03-24T05:30:41;98382.38;;;11.17;93.63
2188;BME280;1100;52.014;8.540;2023-03-24T05:33:06;98382.16;;;11.20;93.93
2188;BME280;1100;52.014;8.540;2023-03-24T05:35:32;98396.34;;;11.23;93.77
2188;BME280;1100;52.014;8.540;2023-03-24T05:37:57;98389.53;;;11.24;93.59
2188;BME280;1100;52.014;8.540;2023-03-24T05:40:22;98399.91;;;11.23;93.62
2188;BME280;1100;52.014;8.540;2023-03-24T05:42:49;98402.38;;;11.21;93.75
2188;BME280;1100;52.014;8.540;2023-03-24T05:45:14;98389.75;;;11.20;93.74
2188;BME280;1100;52.014;8.540;2023-03-24T05:47:40;98408.91;;;11.18;93.86
2188;BME280;1100;52.014;8.540;2023-03-24T05:50:06;98412.69;;;11.15;93.79
2188;BME280;1100;52.014;8.540;2023-03-24T05:52:33;98417.47;;;11.14;94.05
2188;BME280;1100;52.014;8.540;2023-03-24T05:54:58;98450.09;;;11.14;94.05
2188;BME280;1100;52.014;8.540;2023-03-24T05:57:23;98457.66;;;11.13;93.93
2188;BME280;1100;52.014;8.540;2023-03-24T05:59:49;98434.38;;;11.11;93.92
2188;BME280;1100;52.014;8.540;2023-03-24T06:02:16;98450.75;;;11.08;93.75
2188;BME280;1100;52.014;8.540;2023-03-24T06:04:41;98451.25;;;11.07;93.77
2188;BME280;1100;52.014;8.540;2023-03-24T06:07:10;98465.91;;;11.07;93.75
2188;BME280;1100;52.014;8.540;2023-03-24T06:09:36;98463.13;;;11.07;93.56
2188;BME280;1100;52.014;8.540;2023-03-24T06:12:02;98457.28;;;11.05;93.54
2188;BME280;1100;52.014;8.540;2023-03-24T06:14:28;98453.47;;;11.03;93.44
2188;BME280;1100;52.014;8.540;2023-03-24T06:16:54;98459.50;;;11.01;93.29
2188;BME280;1100;52.014;8.540;2023-03-24T06:19:23;98478.97;;;11.01;93.64
2188;BME280;1100;52.014;8.540;2023-03-24T06:21:49;98468.81;;;10.98;93.28
2188;BME280;1100;52.014;8.540;2023-03-24T06:24:15;98485.50;;;10.98;93.39
2188;BME280;1100;52.014;8.540;2023-03-24T06:26:41;98492.97;;;10.92;93.15
2188;BME280;1100;52.014;8.540;2023-03-24T06:29:09;98496.41;;;10.87;93.30
2188;BME280;1100;52.014;8.540;2023-03-24T06:31:34;98499.69;;;10.85;93.19
2188;BME280;1100;52.014;8.540;2023-03-24T06:34:04;98516.06;;;10.83;93.39
2188;BME280;1100;52.014;8.540;2023-03-24T06:36:30;98522.09;;;10.81;93.59
2188;BME280;1100;52.014;8.540;2023-03-24T06:38:55;98523.06;;;10.78;93.39
2188;BME280;1100;52.014;8.540;2023-03-24T06:41:21;98543.22;;;10.73;93.02
2188;BME280;1100;52.014;8.540;2023-03-24T06:43:47;98562.72;;;10.64;92.16
2188;BME280;1100;52.014;8.540;2023-03-24T06:46:12;98558.88;;;10.61;92.02
2188;BME280;1100;52.014;8.540;2023-03-24T06:48:37;98560.31;;;10.56;91.43
2188;BME280;1100;52.014;8.540;2023-03-24T06:51:03;98571.44;;;10.56;91.51
2188;BME280;1100;52.014;8.540;2023-03-24T06:53:32;98573.44;;;10.56;91.31
2188;BME280;1100;52.014;8.540;2023-03-24T06:55:57;98565.00;;;10.50;90.65
2188;BME280;1100;52.014;8.540;2023-03-24T06:58:22;98587.41;;;10.46;90.76
2188;BME280;1100;52.014;8.540;2023-03-24T07:00:48;98597.22;;;10.32;89.75
2188;BME280;1100;52.014;8.540;2023-03-24T07:03:14;98608.75;;;10.16;90.13
2188;BME280;1100;52.014;8.540;2023-03-24T07:05:42;98607.75;;;10.04;89.54
2188;BME280;1100;52.014;8.540;2023-03-24T07:08:08;98617.34;;;9.93;89.70
2188;BME280;1100;52.014;8.540;2023-03-24T07:10:38;98618.50;;;9.87;89.53
2188;BME280;1100;52.014;8.540;2023-03-24T07:13:05;98639.13;;;9.85;89.07
2188;BME280;1100;52.014;8.540;2023-03-24T07:15:31;98628.06;;;9.76;88.71
2188;BME280;1100;52.014;8.540;2023-03-24T07:17:57;98646.00;;;9.66;88.41
2188;BME280;1100;52.014;8.540;2023-03-24T07:20:22;98639.44;;;9.54;88.16
2188;BME280;1100;52.014;8.540;2023-03-24T07:22:48;98640.22;;;9.45;88.08
2188;BME280;1100;52.014;8.540;2023-03-24T07:25:13;98650.84;;;9.46;88.06
2188;BME280;1100;52.014;8.540;2023-03-24T07:27:44;98650.38;;;9.48;87.85
2188;BME280;1100;52.014;8.540;2023-03-24T07:30:09;98647.28;;;9.55;87.86
2188;BME280;1100;52.014;8.540;2023-03-24T07:32:35;98649.56;;;9.66;87.85
2188;BME280;1100;52.014;8.540;2023-03-24T07:35:05;98652.53;;;9.87;87.87
2188;BME280;1100;52.014;8.540;2023-03-24T07:37:31;98660.34;;;10.32;87.07
2188;BME280;1100;52.014;8.540;2023-03-24T07:39:56;98652.38;;;10.49;86.70
2188;BME280;1100;52.014;8.540;2023-03-24T07:42:21;98671.47;;;10.56;86.13
2188;BME280;1100;52.014;8.540;2023-03-24T07:44:47;98668.63;;;10.66;85.84
2188;BME280;1100;52.014;8.540;2023-03-24T07:47:12;98660.41;;;10.47;85.42
2188;BME280;1100;52.014;8.540;2023-03-24T07:49:37;98666.59;;;10.42;85.17
2188;BME280;1100;52.014;8.540;2023-03-24T07:52:03;98683.13;;;10.12;84.31
2188;BME280;1100;52.014;8.540;2023-03-24T07:54:30;98686.00;;;9.93;85.01
2188;BME280;1100;52.014;8.540;2023-03-24T07:56:56;98688.03;;;9.83;84.95
2188;BME280;1100;52.014;8.540;2023-03-24T07:59:22;98674.47;;;9.85;84.93
2188;BME280;1100;52.014;8.540;2023-03-24T08:01:47;98681.75;;;10.07;84.96
2188;BME280;1100;52.014;8.540;2023-03-24T08:04:14;98659.66;;;10.13;83.70
2188;BME280;1100;52.014;8.540;2023-03-24T08:06:41;98669.84;;;10.16;83.89
2188;BME280;1100;52.014;8.540;2023-03-24T08:09:07;98686.09;;;10.32;84.26
2188;BME280;1100;52.014;8.540;2023-03-24T08:11:33;98689.88;;;10.44;83.83
2188;BME280;1100;52.014;8.540;2023-03-24T08:14:00;98695.34;;;10.29;83.80
2188;BME280;1100;52.014;8.540;2023-03-24T08:16:25;98700.50;;;10.21;83.73
2188;BME280;1100;52.014;8.540;2023-03-24T08:18:50;98701.91;;;10.17;83.48
2188;BME280;1100;52.014;8.540;2023-03-24T08:21:16;98711.47;;;10.16;82.68
2188;BME280;1100;52.014;8.540;2023-03-24T08:23:41;98702.69;;;10.17;82.64
2188;BME280;1100;52.014;8.540;2023-03-24T08:26:07;98709.91;;;10.24;83.52
2188;BME280;1100;52.014;8.540;2023-03-24T08:28:35;98708.72;;;10.40;83.54
2188;BME280;1100;52.014;8.540;2023-03-24T08:31:01;98700.78;;;10.57;83.71
2188;BME280;1100;52.014;8.540;2023-03-24T08:33:26;98724.78;;;10.70;82.78
2188;BME280;1100;52.014;8.540;2023-03-24T08:35:51;98723.81;;;10.98;83.26
2188;BME280;1100;52.014;8.540;2023-03-24T08:38:21;98735.44;;;11.11;82.38
2188;BME280;1100;52.014;8.540;2023-03-24T08:40:47;98733.81;;;11.04;81.95
2188;BME280;1100;52.014;8.540;2023-03-24T08:43:14;98746.31;;;11.24;81.33
2188;BME280;1100;52.014;8.540;2023-03-24T08:45:40;98756.69;;;11.39;81.01
2188;BME280;1100;52.014;8.540;2023-03-24T08:48:06;98755.34;;;11.34;80.52
2188;BME280;1100;52.014;8.540;2023-03-24T08:50:33;98748.78;;;11.22;80.87
2188;BME280;1100;52.014;8.540;2023-03-24T08:53:00;98746.09;;;11.13;80.48
2188;BME280;1100;52.014;8.540;2023-03-24T08:55:26;98752.19;;;11.41;79.97
2188;BME280;1100;52.014;8.540;2023-03-24T08:57:52;98746.63;;;11.71;80.84
2188;BME280;1100;52.014;8.540;2023-03-24T09:00:19;98757.47;;;12.15;79.68
2188;BME280;1100;52.014;8.540;2023-03-24T09:02:46;98763.75;;;12.45;79.14
2188;BME280;1100;52.014;8.540;2023-03-24T09:05:12;98764.06;;;12.32;78.85
2188;BME280;1100;52.014;8.540;2023-03-24T09:07:39;98770.06;;;12.46;76.93
2188;BME280;1100;52.014;8.540;2023-03-24T09:10:06;98759.25;;;12.33;76.74
2188;BME280;1100;52.014;8.540;2023-03-24T09:12:33;98752.66;;;12.15;77.38
2188;BME280;1100;52.014;8.540;2023-03-24T09:14:58;98765.91;;;12.05;77.12
2188;BME280;1100;52.014;8.540;2023-03-24T09:17:23;98756.41;;;11.82;76.86
2188;BME280;1100;52.014;8.540;2023-03-24T09:19:49;98763.63;;;11.58;76.71
2188;BME280;1100;52.014;8.540;2023-03-24T09:22:14;98749.56;;;11.38;75.46
2188;BME280;1100;52.014;8.540;2023-03-24T09:24:40;98748.03;;;11.21;76.75
2188;BME280;1100;52.014;8.540;2023-03-24T09:27:05;98749.97;;;11.30;76.96
2188;BME280;1100;52.014;8.540;2023-03-24T09:29:30;98756.69;;;11.54;76.63
2188;BME280;1100;52.014;8.540;2023-03-24T09:31:56;98755.16;;;11.68;77.04
2188;BME280;1100;52.014;8.540;2023-03-24T09:34:22;98741.81;;;11.87;76.17
2188;BME280;1100;52.014;8.540;2023-03-24T09:36:48;98744.09;;;12.04;74.75
2188;BME280;1100;52.014;8.540;2023-03-24T09:39:14;98734.03;;;12.06;75.10
2188;BME280;1100;52.014;8.540;2023-03-24T09:41:43;98741.53;;;12.51;74.53
2188;BME280;1100;52.014;8.540;2023-03-24T09:44:33;98731.00;;;12.61;74.00
2188;BME280;1100;52.014;8.540;2023-03-24T09:49:52;98742.28;;;12.01;73.88
2188;BME280;1100;52.014;8.540;2023-03-24T09:52:25;98748.44;;;12.05;73.69
2188;BME280;1100;52.014;8.540;2023-03-24T09:54:57;98748.91;;;12.03;73.95
2188;BME280;1100;52.014;8.540;2023-03-24T09:57:33;98749.88;;;12.00;73.10
2188;BME280;1100;52.014;8.540;2023-03-24T10:00:29;98753.03;;;11.93;72.93
2188;BME280;1100;52.014;8.540;2023-03-24T10:02:53;98772.16;;;11.85;73.64
2188;BME280;1100;52.014;8.540;2023-03-24T10:05:52;98748.34;;;11.69;72.30
2188;BME280;1100;52.014;8.540;2023-03-24T10:11:26;98763.22;;;12.26;72.17
2188;BME280;1100;52.014;8.540;2023-03-24T10:26:04;98775.19;;;13.10;69.02
2188;BME280;1100;52.014;8.540;2023-03-24T10:31:10;98785.03;;;14.06;66.90
2188;BME280;1100;52.014;8.540;2023-03-24T10:33:42;98780.44;;;14.03;66.92
2188;BME280;1100;52.014;8.540;2023-03-24T10:36:10;98775.66;;;13.77;67.40
2188;BME280;1100;52.014;8.540;2023-03-24T10:38:37;98785.22;;;13.23;67.05
2188;BME280;1100;52.014;8.540;2023-03-24T10:41:03;98792.00;;;12.74;67.13
2188;BME280;1100;52.014;8.540;2023-03-24T10:43:29;98797.69;;;12.44;67.58
2188;BME280;1100;52.014;8.540;2023-03-24T10:45:56;98796.84;;;12.23;67.60
2188;BME280;1100;52.014;8.540;2023-03-24T10:51:49;98813.44;;;11.87;68.35
2188;BME280;1100;52.014;8.540;2023-03-24T10:57:03;98801.97;;;13.23;66.74
2188;BME280;1100;52.014;8.540;2023-03-24T10:59:35;98798.56;;;13.33;66.30
2188;BME280;1100;52.014;8.540;2023-03-24T11:02:16;98802.47;;;13.00;64.95
2188;BME280;1100;52.014;8.540;2023-03-24T11:04:55;98805.06;;;12.47;64.27
2188;BME280;1100;52.014;8.540;2023-03-24T11:07:32;98807.91;;;12.17;65.20
2188;BME280;1100;52.014;8.540;2023-03-24T11:12:28;98809.50;;;12.39;64.64
2188;BME280;1100;52.014;8.540;2023-03-24T11:15:17;98802.44;;;13.42;63.80
2188;BME280;1100;52.014;8.540;2023-03-24T11:17:44;98805.72;;;14.20;64.26
2188;BME280;1100;52.014;8.540;2023-03-24T11:20:39;98809.94;;;14.42;61.07
2188;BME280;1100;52.014;8.540;2023-03-24T11:23:19;98808.44;;;14.79;61.22
2188;BME280;1100;52.014;8.540;2023-03-24T11:25:52;98807.16;;;14.80;61.46
2188;BME280;1100;52.014;8.540;2023-03-24T11:28:22;98807.44;;;14.50;59.91
2188;BME280;1100;52.014;8.540;2023-03-24T11:30:51;98809.50;;;14.49;59.65
2188;BME280;1100;52.014;8.540;2023-03-24T11:35:44;98808.16;;;15.32;56.79
2188;BME280;1100;52.014;8.540;2023-03-24T11:38:15;98809.16;;;15.35;57.23
2188;BME280;1100;52.014;8.540;2023-03-24T11:40:56;98812.28;;;15.60;56.57
2188;BME280;1100;52.014;8.540;2023-03-24T11:43:27;98800.34;;;15.82;56.11
2188;BME280;1100;52.014;8.540;2023-03-24T11:46:12;98824.22;;;15.49;56.98
2188;BME280;1100;52.014;8.540;2023-03-24T11:48:46;98809.34;;;14.64;56.02
2188;BME280;1100;52.014;8.540;2023-03-24T11:51:31;98815.41;;;14.25;57.82
2188;BME280;1100;52.014;8.540;2023-03-24T11:54:01;98819.47;;;13.65;57.30
2188;BME280;1100;52.014;8.540;2023-03-24T11:56:35;98815.31;;;13.13;59.11
2188;BME280;1100;52.014;8.540;2023-03-24T12:02:00;98819.19;;;12.79;61.73
2188;BME280;1100;52.014;8.540;2023-03-24T12:13:32;98822.28;;;13.65;61.16
2188;BME280;1100;52.014;8.540;2023-03-24T12:19:05;98832.16;;;13.24;61.04
2188;BME280;1100;52.014;8.540;2023-03-24T12:27:04;98810.94;;;12.70;62.35
2188;BME280;1100;52.014;8.540;2023-03-24T12:42:44;98793.72;;;14.14;61.68
2188;BME280;1100;52.014;8.540;2023-03-24T12:53:21;98787.19;;;13.90;59.86
2188;BME280;1100;52.014;8.540;2023-03-24T12:55:58;98805.94;;;13.57;59.84
2188;BME280;1100;52.014;8.540;2023-03-24T13:01:24;98809.03;;;12.97;59.37
2188;BME280;1100;52.014;8.540;2023-03-24T13:06:58;98806.88;;;12.86;60.25
2188;BME280;1100;52.014;8.540;2023-03-24T13:12:16;98810.06;;;13.00;60.52
2188;BME280;1100;52.014;8.540;2023-03-24T13:15:05;98800.66;;;13.18;59.37
2188;BME280;1100;52.014;8.540;2023-03-24T13:20:14;98786.44;;;13.90;57.03
2188;BME280;1100;52.014;8.540;2023-03-24T13:22:41;98806.59;;;13.73;56.17
2188;BME280;1100;52.014;8.540;2023-03-24T13:25:24;98796.31;;;13.58;57.15
2188;BME280;1100;52.014;8.540;2023-03-24T13:27:57;98798.00;;;13.50;56.98
2188;BME280;1100;52.014;8.540;2023-03-24T13:30:41;98785.94;;;13.17;56.47
2188;BME280;1100;52.014;8.540;2023-03-24T13:33:16;98786.16;;;12.93;57.85
2188;BME280;1100;52.014;8.540;2023-03-24T13:36:21;98783.41;;;13.19;58.04
2188;BME280;1100;52.014;8.540;2023-03-24T13:38:52;98790.59;;;13.47;58.85
2188;BME280;1100;52.014;8.540;2023-03-24T13:41:21;98781.94;;;13.45;58.52
2188;BME280;1100;52.014;8.540;2023-03-24T13:44:02;98786.13;;;13.35;58.55
2188;BME280;1100;52.014;8.540;2023-03-24T13:46:30;98787.00;;;13.46;58.61
2188;BME280;1100;52.014;8.540;2023-03-24T13:48:56;98786.88;;;13.56;57.00
2188;BME280;1100;52.014;8.540;2023-03-24T13:51:34;98798.22;;;13.73;57.66
2188;BME280;1100;52.014;8.540;2023-03-24T13:54:12;98791.28;;;13.95;56.82
2188;BME280;1100;52.014;8.540;2023-03-24T13:56:43;98796.81;;;13.83;56.87
2188;BME280;1100;52.014;8.540;2023-03-24T13:59:41;98816.56;;;13.53;55.61
2188;BME280;1100;52.014;8.540;2023-03-24T14:05:01;98798.94;;;13.68;56.43
2188;BME280;1100;52.014;8.540;2023-03-24T14:07:31;98804.53;;;13.47;57.03
2188;BME280;1100;52.014;8.540;2023-03-24T14:15:41;98798.81;;;13.56;56.40
2188;BME280;1100;52.014;8.540;2023-03-24T14:23:48;98801.75;;;13.68;55.13
2188;BME280;1100;52.014;8.540;2023-03-24T14:36:23;98793.31;;;13.41;57.51
2188;BME280;1100;52.014;8.540;2023-03-24T14:38:50;98801.72;;;13.20;56.24
2188;BME280;1100;52.014;8.540;2023-03-24T14:41:26;98796.31;;;12.96;56.62
2188;BME280;1100;52.014;8.540;2023-03-24T14:43:55;98796.88;;;12.79;57.56
2188;BME280;1100;52.014;8.540;2023-03-24T14:51:58;98782.78;;;12.68;57.78
2188;BME280;1100;52.014;8.540;2023-03-24T14:54:31;98784.06;;;12.67;58.43
2188;BME280;1100;52.014;8.540;2023-03-24T14:56:58;98792.69;;;12.69;58.40
2188;BME280;1100;52.014;8.540;2023-03-24T14:59:26;98781.56;;;12.69;58.69
2188;BME280;1100;52.014;8.540;2023-03-24T15:02:00;98781.94;;;12.62;58.03
2188;BME280;1100;52.014;8.540;2023-03-24T15:04:29;98773.03;;;12.57;58.97
2188;BME280;1100;52.014;8.540;2023-03-24T15:06:54;98771.00;;;12.58;59.17
2188;BME280;1100;52.014;8.540;2023-03-24T15:09:20;98768.50;;;12.60;59.30
2188;BME280;1100;52.014;8.540;2023-03-24T15:11:46;98757.63;;;12.62;59.09
2188;BME280;1100;52.014;8.540;2023-03-24T15:14:23;98761.09;;;12.57;59.10
2188;BME280;1100;52.014;8.540;2023-03-24T15:16:54;98774.41;;;12.47;58.42
2188;BME280;1100;52.014;8.540;2023-03-24T15:19:23;98893.28;;;12.35;58.85
2188;BME280;1100;52.014;8.540;2023-03-24T15:22:01;98879.59;;;11.37;61.19
2188;BME280;1100;52.014;8.540;2023-03-24T15:24:30;98868.28;;;9.68;64.85
2188;BME280;1100;52.014;8.540;2023-03-24T15:29:32;98882.03;;;8.20;69.45
2188;BME280;1100;52.014;8.540;2023-03-24T15:31:58;98873.94;;;8.03;71.84
2188;BME280;1100;52.014;8.540;2023-03-24T15:34:30;98874.91;;;8.09;72.26
2188;BME280;1100;52.014;8.540;2023-03-24T15:37:01;98868.81;;;8.24;74.28
2188;BME280;1100;52.014;8.540;2023-03-24T15:39:32;98886.38;;;8.30;73.95
2188;BME280;1100;52.014;8.540;2023-03-24T15:41:58;98883.31;;;8.28;75.46
2188;BME280;1100;52.014;8.540;2023-03-24T15:44:27;98885.25;;;8.18;76.01
2188;BME280;1100;52.014;8.540;2023-03-24T15:46:57;98877.00;;;8.05;75.67
2188;BME280;1100;52.014;8.540;2023-03-24T15:49:31;98876.69;;;8.03;77.28
2188;BME280;1100;52.014;8.540;2023-03-24T15:54:28;98865.41;;;7.97;77.59
2188;BME280;1100;52.014;8.540;2023-03-24T15:57:10;98868.19;;;7.97;77.03
2188;BME280;1100;52.014;8.540;2023-03-24T15:59:43;98865.75;;;8.00;77.57
2188;BME280;1100;52.014;8.540;2023-03-24T16:02:16;98859.44;;;7.99;77.56
2188;BME280;1100;52.014;8.540;2023-03-24T16:04:46;98862.66;;;7.97;77.36
2188;BME280;1100;52.014;8.540;2023-03-24T16:07:21;98857.34;;;8.03;77.24
2188;BME280;1100;52.014;8.540;2023-03-24T16:09:58;98852.75;;;8.09;77.15
2188;BME280;1100;52.014;8.540;2023-03-24T16:12:29;98854.16;;;8.14;77.72
2188;BME280;1100;52.014;8.540;2023-03-24T16:14:54;98852.19;;;8.24;77.63
2188;BME280;1100;52.014;8.540;2023-03-24T16:17:20;98841.16;;;8.33;77.80
2188;BME280;1100;52.014;8.540;2023-03-24T16:19:45;98833.97;;;8.36;77.42
2188;BME280;1100;52.014;8.540;2023-03-24T16:22:10;98822.69;;;8.30;77.25